sensor_id;sensor_type;location;lat;lon;timestamp;P1;durP1;ratioP1;P2;durP2;ratioP2
25615;SDS011;13482;48.234;13.006;2023-11-19T00:00:09;0.90;;;0.50;;
25615;SDS011;13482;48.234;13.006;2023-11-19T00:02:40;0.95;;;0.63;;
25615;SDS011;13482;48.234;13.006;2023-11-19T00:05:10;1.00;;;0.60;;
25615;SDS011;13482;48.234;13.006;2023-11-19T00:07:39;1.25;;;0.68;;
25615;SDS011;13482;48.234;13.006;2023-11-19T00:12:43;0.50;;;0.40;;
25615;SDS011;13482;48.234;13.006;2023-11-19T00:15:13;1.00;;;0.50;;
25615;SDS011;13482;48.234;13.006;2023-11-19T00:17:46;0.80;;;0.60;;
25615;SDS011;13482;48.234;13.006;2023-11-19T00:20:16;0.82;;;0.50;;
25615;SDS011;13482;48.234;13.006;2023-11-19T00:22:46;0.90;;;0.50;;
25615;SDS011;13482;48.234;13.006;2023-11-19T00:25:19;0.70;;;0.50;;
25615;SDS011;13482;48.234;13.006;2023-11-19T00:27:48;0.95;;;0.52;;
25615;SDS011;13482;48.234;13.006;2023-11-19T00:30:18;0.80;;;0.43;;
25615;SDS011;13482;48.234;13.006;2023-11-19T00:32:45;0.73;;;0.57;;
25615;SDS011;13482;48.234;13.006;2023-11-19T00:35:13;0.68;;;0.47;;
25615;SDS011;13482;48.234;13.006;2023-11-19T00:37:41;1.00;;;0.50;;
25615;SDS011;13482;48.234;13.006;2023-11-19T00:40:09;0.88;;;0.50;;
25615;SDS011;13482;48.234;13.006;2023-11-19T00:42:38;0.45;;;0.35;;
25615;SDS011;13482;48.234;13.006;2023-11-19T00:45:06;0.90;;;0.40;;
25615;SDS011;13482;48.234;13.006;2023-11-19T00:50:06;0.68;;;0.50;;
25615;SDS011;13482;48.234;13.006;2023-11-19T00:52:38;1.00;;;0.60;;
25615;SDS011;13482;48.234;13.006;2023-11-19T00:55:06;0.73;;;0.57;;
25615;SDS011;13482;48.234;13.006;2023-11-19T00:57:35;1.08;;;0.60;;
25615;SDS011;13482;48.234;13.006;2023-11-19T01:00:04;0.98;;;0.50;;
25615;SDS011;13482;48.234;13.006;2023-11-19T01:02:46;0.75;;;0.50;;
25615;SDS011;13482;48.234;13.006;2023-11-19T01:07:50;1.27;;;0.70;;
25615;SDS011;13482;48.234;13.006;2023-11-19T01:10:21;1.13;;;0.50;;
25615;SDS011;13482;48.234;13.006;2023-11-19T01:12:48;0.65;;;0.40;;
25615;SDS011;13482;48.234;13.006;2023-11-19T01:15:17;0.88;;;0.50;;
25615;SDS011;13482;48.234;13.006;2023-11-19T01:17:48;0.43;;;0.40;;
25615;SDS011;13482;48.234;13.006;2023-11-19T01:20:19;0.90;;;0.67;;
25615;SDS011;13482;48.234;13.006;2023-11-19T01:22:47;1.30;;;0.70;;
25615;SDS011;13482;48.234;13.006;2023-11-19T01:25:15;0.95;;;0.50;;
25615;SDS011;13482;48.234;13.006;2023-11-19T01:27:43;0.65;;;0.50;;
25615;SDS011;13482;48.234;13.006;2023-11-19T01:30:11;1.10;;;0.50;;
25615;SDS011;13482;48.234;13.006;2023-11-19T01:32:40;0.90;;;0.57;;
25615;SDS011;13482;48.234;13.006;2023-11-19T01:35:07;0.88;;;0.50;;
25615;SDS011;13482;48.234;13.006;2023-11-19T01:37:35;0.77;;;0.60;;
25615;SDS011;13482;48.234;13.006;2023-11-19T01:40:03;1.17;;;0.60;;
25615;SDS011;13482;48.234;13.006;2023-11-19T01:42:36;1.15;;;0.63;;
25615;SDS011;13482;48.234;13.006;2023-11-19T01:45:05;0.80;;;0.50;;
25615;SDS011;13482;48.234;13.006;2023-11-19T01:47:35;0.98;;;0.60;;
25615;SDS011;13482;48.234;13.006;2023-11-19T01:50:03;0.65;;;0.50;;
25615;SDS011;13482;48.234;13.006;2023-11-19T01:52:35;1.02;;;0.52;;
25615;SDS011;13482;48.234;13.006;2023-11-19T01:55:05;1.00;;;0.65;;
25615;SDS011;13482;48.234;13.006;2023-11-19T02:00:06;0.80;;;0.47;;
25615;SDS011;13482;48.234;13.006;2023-11-19T02:02:40;0.50;;;0.40;;
25615;SDS011;13482;48.234;13.006;2023-11-19T02:05:08;0.80;;;0.57;;
25615;SDS011;13482;48.234;13.006;2023-11-19T02:07:40;0.77;;;0.50;;
25615;SDS011;13482;48.234;13.006;2023-11-19T02:10:08;0.73;;;0.50;;
25615;SDS011;13482;48.234;13.006;2023-11-19T02:12:40;0.80;;;0.60;;
25615;SDS011;13482;48.234;13.006;2023-11-19T02:15:09;0.88;;;0.55;;
25615;SDS011;13482;48.234;13.006;2023-11-19T02:17:37;0.77;;;0.50;;
25615;SDS011;13482;48.234;13.006;2023-11-19T02:20:05;0.77;;;0.47;;
25615;SDS011;13482;48.234;13.006;2023-11-19T02:22:39;0.73;;;0.47;;
25615;SDS011;13482;48.234;13.006;2023-11-19T02:25:07;0.60;;;0.60;;
25615;SDS011;13482;48.234;13.006;2023-11-19T02:30:10;0.60;;;0.50;;
25615;SDS011;13482;48.234;13.006;2023-11-19T02:32:41;0.93;;;0.55;;
25615;SDS011;13482;48.234;13.006;2023-11-19T02:35:09;0.93;;;0.70;;
25615;SDS011;13482;48.234;13.006;2023-11-19T02:37:38;1.08;;;0.60;;
25615;SDS011;13482;48.234;13.006;2023-11-19T02:40:06;0.50;;;0.50;;
25615;SDS011;13482;48.234;13.006;2023-11-19T02:42:36;1.02;;;0.70;;
25615;SDS011;13482;48.234;13.006;2023-11-19T02:45:04;0.63;;;0.50;;
25615;SDS011;13482;48.234;13.006;2023-11-19T02:47:33;1.27;;;0.70;;
25615;SDS011;13482;48.234;13.006;2023-11-19T02:50:01;0.82;;;0.55;;
25615;SDS011;13482;48.234;13.006;2023-11-19T02:52:29;0.77;;;0.60;;
25615;SDS011;13482;48.234;13.006;2023-11-19T02:55:01;0.73;;;0.52;;
25615;SDS011;13482;48.234;13.006;2023-11-19T02:57:32;0.80;;;0.50;;
25615;SDS011;13482;48.234;13.006;2023-11-19T03:00:00;0.70;;;0.60;;
25615;SDS011;13482;48.234;13.006;2023-11-19T03:02:39;0.80;;;0.60;;
25615;SDS011;13482;48.234;13.006;2023-11-19T03:05:26;0.85;;;0.60;;
25615;SDS011;13482;48.234;13.006;2023-11-19T03:07:57;1.00;;;0.60;;
25615;SDS011;13482;48.234;13.006;2023-11-19T03:10:25;0.68;;;0.52;;
25615;SDS011;13482;48.234;13.006;2023-11-19T03:12:52;0.80;;;0.50;;
25615;SDS011;13482;48.234;13.006;2023-11-19T03:15:22;0.63;;;0.40;;
25615;SDS011;13482;48.234;13.006;2023-11-19T03:17:49;1.02;;;0.60;;
25615;SDS011;13482;48.234;13.006;2023-11-19T03:20:17;0.47;;;0.40;;
25615;SDS011;13482;48.234;13.006;2023-11-19T03:22:44;0.60;;;0.43;;
25615;SDS011;13482;48.234;13.006;2023-11-19T03:25:12;0.80;;;0.52;;
25615;SDS011;13482;48.234;13.006;2023-11-19T03:27:40;0.60;;;0.50;;
25615;SDS011;13482;48.234;13.006;2023-11-19T03:30:10;0.50;;;0.45;;
25615;SDS011;13482;48.234;13.006;2023-11-19T03:32:38;1.27;;;0.73;;
25615;SDS011;13482;48.234;13.006;2023-11-19T03:35:06;0.73;;;0.60;;
25615;SDS011;13482;48.234;13.006;2023-11-19T03:37:35;0.77;;;0.57;;
25615;SDS011;13482;48.234;13.006;2023-11-19T03:40:03;0.70;;;0.50;;
25615;SDS011;13482;48.234;13.006;2023-11-19T03:42:32;0.70;;;0.43;;
25615;SDS011;13482;48.234;13.006;2023-11-19T03:45:00;0.80;;;0.60;;
25615;SDS011;13482;48.234;13.006;2023-11-19T03:47:27;0.60;;;0.50;;
25615;SDS011;13482;48.234;13.006;2023-11-19T03:49:55;0.68;;;0.57;;
25615;SDS011;13482;48.234;13.006;2023-11-19T03:52:23;1.00;;;0.60;;
25615;SDS011;13482;48.234;13.006;2023-11-19T03:54:51;0.82;;;0.70;;
25615;SDS011;13482;48.234;13.006;2023-11-19T03:57:18;1.10;;;0.70;;
25615;SDS011;13482;48.234;13.006;2023-11-19T03:59:46;0.75;;;0.50;;
25615;SDS011;13482;48.234;13.006;2023-11-19T04:02:16;1.10;;;0.50;;
25615;SDS011;13482;48.234;13.006;2023-11-19T04:04:45;0.43;;;0.40;;
25615;SDS011;13482;48.234;13.006;2023-11-19T04:07:12;0.73;;;0.55;;
25615;SDS011;13482;48.234;13.006;2023-11-19T04:09:40;0.60;;;0.40;;
25615;SDS011;13482;48.234;13.006;2023-11-19T04:12:07;0.50;;;0.40;;
25615;SDS011;13482;48.234;13.006;2023-11-19T04:14:36;0.50;;;0.32;;
25615;SDS011;13482;48.234;13.006;2023-11-19T04:17:03;0.63;;;0.40;;
25615;SDS011;13482;48.234;13.006;2023-11-19T04:19:31;0.45;;;0.30;;
25615;SDS011;13482;48.234;13.006;2023-11-19T04:21:59;0.73;;;0.50;;
25615;SDS011;13482;48.234;13.006;2023-11-19T04:24:27;0.45;;;0.40;;
25615;SDS011;13482;48.234;13.006;2023-11-19T04:26:55;0.68;;;0.50;;
25615;SDS011;13482;48.234;13.006;2023-11-19T04:29:22;0.82;;;0.70;;
25615;SDS011;13482;48.234;13.006;2023-11-19T04:31:50;0.68;;;0.57;;
25615;SDS011;13482;48.234;13.006;2023-11-19T04:34:17;0.95;;;0.57;;
25615;SDS011;13482;48.234;13.006;2023-11-19T04:36:45;0.63;;;0.50;;
25615;SDS011;13482;48.234;13.006;2023-11-19T04:39:12;0.93;;;0.60;;
25615;SDS011;13482;48.234;13.006;2023-11-19T04:41:46;0.65;;;0.40;;
25615;SDS011;13482;48.234;13.006;2023-11-19T04:44:17;0.63;;;0.40;;
25615;SDS011;13482;48.234;13.006;2023-11-19T04:46:45;0.47;;;0.40;;
25615;SDS011;13482;48.234;13.006;2023-11-19T04:49:13;0.47;;;0.40;;
25615;SDS011;13482;48.234;13.006;2023-11-19T04:51:41;0.77;;;0.50;;
25615;SDS011;13482;48.234;13.006;2023-11-19T04:54:13;0.50;;;0.40;;
25615;SDS011;13482;48.234;13.006;2023-11-19T04:56:44;0.65;;;0.50;;
25615;SDS011;13482;48.234;13.006;2023-11-19T04:59:15;0.63;;;0.45;;
25615;SDS011;13482;48.234;13.006;2023-11-19T05:01:46;1.00;;;0.47;;
25615;SDS011;13482;48.234;13.006;2023-11-19T05:04:15;0.50;;;0.30;;
25615;SDS011;13482;48.234;13.006;2023-11-19T05:06:42;0.73;;;0.50;;
25615;SDS011;13482;48.234;13.006;2023-11-19T05:09:10;0.50;;;0.35;;
25615;SDS011;13482;48.234;13.006;2023-11-19T05:11:39;0.57;;;0.47;;
25615;SDS011;13482;48.234;13.006;2023-11-19T05:14:10;0.50;;;0.40;;
25615;SDS011;13482;48.234;13.006;2023-11-19T05:16:41;0.75;;;0.47;;
25615;SDS011;13482;48.234;13.006;2023-11-19T05:19:09;0.63;;;0.50;;
25615;SDS011;13482;48.234;13.006;2023-11-19T05:21:37;0.70;;;0.50;;
25615;SDS011;13482;48.234;13.006;2023-11-19T05:24:04;0.50;;;0.40;;
25615;SDS011;13482;48.234;13.006;2023-11-19T05:26:33;0.98;;;0.60;;
25615;SDS011;13482;48.234;13.006;2023-11-19T05:29:00;0.60;;;0.43;;
25615;SDS011;13482;48.234;13.006;2023-11-19T05:31:28;0.63;;;0.50;;
25615;SDS011;13482;48.234;13.006;2023-11-19T05:33:58;0.75;;;0.50;;
25615;SDS011;13482;48.234;13.006;2023-11-19T05:36:26;0.95;;;0.60;;
25615;SDS011;13482;48.234;13.006;2023-11-19T05:38:55;0.80;;;0.55;;
25615;SDS011;13482;48.234;13.006;2023-11-19T05:41:23;0.40;;;0.40;;
25615;SDS011;13482;48.234;13.006;2023-11-19T05:43:51;0.75;;;0.50;;
25615;SDS011;13482;48.234;13.006;2023-11-19T05:46:18;0.70;;;0.60;;
25615;SDS011;13482;48.234;13.006;2023-11-19T05:48:47;0.52;;;0.47;;
25615;SDS011;13482;48.234;13.006;2023-11-19T05:51:15;0.95;;;0.60;;
25615;SDS011;13482;48.234;13.006;2023-11-19T05:53:43;1.67;;;0.90;;
25615;SDS011;13482;48.234;13.006;2023-11-19T05:56:13;1.30;;;0.90;;
25615;SDS011;13482;48.234;13.006;2023-11-19T05:58:43;1.00;;;0.70;;
25615;SDS011;13482;48.234;13.006;2023-11-19T06:01:11;1.40;;;0.80;;
25615;SDS011;13482;48.234;13.006;2023-11-19T06:03:39;1.10;;;0.70;;
25615;SDS011;13482;48.234;13.006;2023-11-19T06:06:07;0.95;;;0.63;;
25615;SDS011;13482;48.234;13.006;2023-11-19T06:08:35;0.90;;;0.60;;
25615;SDS011;13482;48.234;13.006;2023-11-19T06:11:04;0.90;;;0.50;;
25615;SDS011;13482;48.234;13.006;2023-11-19T06:13:31;1.10;;;0.68;;
25615;SDS011;13482;48.234;13.006;2023-11-19T06:15:59;0.75;;;0.52;;
25615;SDS011;13482;48.234;13.006;2023-11-19T06:18:26;0.55;;;0.50;;
25615;SDS011;13482;48.234;13.006;2023-11-19T06:20:54;1.05;;;0.65;;
25615;SDS011;13482;48.234;13.006;2023-11-19T06:23:22;0.90;;;0.60;;
25615;SDS011;13482;48.234;13.006;2023-11-19T06:25:49;1.25;;;0.70;;
25615;SDS011;13482;48.234;13.006;2023-11-19T06:28:17;1.00;;;0.60;;
25615;SDS011;13482;48.234;13.006;2023-11-19T06:30:44;0.95;;;0.43;;
25615;SDS011;13482;48.234;13.006;2023-11-19T06:33:15;1.23;;;0.47;;
25615;SDS011;13482;48.234;13.006;2023-11-19T06:35:42;0.60;;;0.50;;
25615;SDS011;13482;48.234;13.006;2023-11-19T06:38:10;1.15;;;0.65;;
25615;SDS011;13482;48.234;13.006;2023-11-19T06:40:38;1.00;;;0.50;;
25615;SDS011;13482;48.234;13.006;2023-11-19T06:43:07;1.13;;;0.60;;
25615;SDS011;13482;48.234;13.006;2023-11-19T06:45:35;0.90;;;0.60;;
25615;SDS011;13482;48.234;13.006;2023-11-19T06:48:03;1.08;;;0.60;;
25615;SDS011;13482;48.234;13.006;2023-11-19T06:50:32;1.08;;;0.63;;
25615;SDS011;13482;48.234;13.006;2023-11-19T06:53:00;1.20;;;0.70;;
25615;SDS011;13482;48.234;13.006;2023-11-19T06:55:28;1.33;;;0.50;;
25615;SDS011;13482;48.234;13.006;2023-11-19T06:57:55;0.73;;;0.43;;
25615;SDS011;13482;48.234;13.006;2023-11-19T07:00:23;0.50;;;0.40;;
25615;SDS011;13482;48.234;13.006;2023-11-19T07:02:51;0.40;;;0.30;;
25615;SDS011;13482;48.234;13.006;2023-11-19T07:05:19;0.50;;;0.30;;
25615;SDS011;13482;48.234;13.006;2023-11-19T07:07:47;0.57;;;0.40;;
25615;SDS011;13482;48.234;13.006;2023-11-19T07:10:15;0.65;;;0.40;;
25615;SDS011;13482;48.234;13.006;2023-11-19T07:12:43;0.73;;;0.57;;
25615;SDS011;13482;48.234;13.006;2023-11-19T07:15:11;1.00;;;0.60;;
25615;SDS011;13482;48.234;13.006;2023-11-19T07:17:39;1.50;;;0.80;;
25615;SDS011;13482;48.234;13.006;2023-11-19T07:20:07;0.90;;;0.60;;
25615;SDS011;13482;48.234;13.006;2023-11-19T07:22:36;0.60;;;0.55;;
25615;SDS011;13482;48.234;13.006;2023-11-19T07:25:05;0.90;;;0.60;;
25615;SDS011;13482;48.234;13.006;2023-11-19T07:27:33;0.63;;;0.38;;
25615;SDS011;13482;48.234;13.006;2023-11-19T07:30:00;0.50;;;0.40;;
25615;SDS011;13482;48.234;13.006;2023-11-19T07:32:28;1.15;;;0.80;;
25615;SDS011;13482;48.234;13.006;2023-11-19T07:34:56;0.95;;;0.70;;
25615;SDS011;13482;48.234;13.006;2023-11-19T07:37:23;1.17;;;0.80;;
25615;SDS011;13482;48.234;13.006;2023-11-19T07:39:51;1.15;;;0.80;;
25615;SDS011;13482;48.234;13.006;2023-11-19T07:42:19;1.40;;;0.90;;
25615;SDS011;13482;48.234;13.006;2023-11-19T07:44:46;1.70;;;1.15;;
25615;SDS011;13482;48.234;13.006;2023-11-19T07:47:14;1.83;;;1.10;;
25615;SDS011;13482;48.234;13.006;2023-11-19T07:49:41;1.95;;;1.20;;
25615;SDS011;13482;48.234;13.006;2023-11-19T07:52:11;1.55;;;1.00;;
25615;SDS011;13482;48.234;13.006;2023-11-19T07:54:41;1.60;;;1.00;;
25615;SDS011;13482;48.234;13.006;2023-11-19T07:57:09;0.85;;;0.65;;
25615;SDS011;13482;48.234;13.006;2023-11-19T07:59:37;0.73;;;0.60;;
25615;SDS011;13482;48.234;13.006;2023-11-19T08:02:06;1.00;;;0.77;;
25615;SDS011;13482;48.234;13.006;2023-11-19T08:04:33;2.00;;;1.33;;
25615;SDS011;13482;48.234;13.006;2023-11-19T08:07:01;1.98;;;1.38;;
25615;SDS011;13482;48.234;13.006;2023-11-19T08:09:29;2.33;;;1.90;;
25615;SDS011;13482;48.234;13.006;2023-11-19T08:11:57;2.35;;;1.55;;
25615;SDS011;13482;48.234;13.006;2023-11-19T08:14:25;1.90;;;1.30;;
25615;SDS011;13482;48.234;13.006;2023-11-19T08:16:52;2.72;;;1.80;;
25615;SDS011;13482;48.234;13.006;2023-11-19T08:19:20;1.80;;;1.20;;
25615;SDS011;13482;48.234;13.006;2023-11-19T08:21:47;1.67;;;1.17;;
25615;SDS011;13482;48.234;13.006;2023-11-19T08:24:15;1.20;;;0.80;;
25615;SDS011;13482;48.234;13.006;2023-11-19T08:26:42;1.10;;;0.90;;
25615;SDS011;13482;48.234;13.006;2023-11-19T08:29:10;1.48;;;1.10;;
25615;SDS011;13482;48.234;13.006;2023-11-19T08:31:37;2.15;;;1.25;;
25615;SDS011;13482;48.234;13.006;2023-11-19T08:34:05;1.80;;;1.10;;
25615;SDS011;13482;48.234;13.006;2023-11-19T08:36:35;1.70;;;1.05;;
25615;SDS011;13482;48.234;13.006;2023-11-19T08:39:03;1.90;;;1.17;;
25615;SDS011;13482;48.234;13.006;2023-11-19T08:41:30;1.80;;;1.20;;
25615;SDS011;13482;48.234;13.006;2023-11-19T08:43:58;1.70;;;1.20;;
25615;SDS011;13482;48.234;13.006;2023-11-19T08:46:25;1.70;;;1.20;;
25615;SDS011;13482;48.234;13.006;2023-11-19T08:48:53;1.52;;;1.13;;
25615;SDS011;13482;48.234;13.006;2023-11-19T08:51:24;1.50;;;0.88;;
25615;SDS011;13482;48.234;13.006;2023-11-19T08:53:52;2.08;;;1.58;;
25615;SDS011;13482;48.234;13.006;2023-11-19T08:56:19;2.20;;;1.70;;
25615;SDS011;13482;48.234;13.006;2023-11-19T08:58:47;1.92;;;1.50;;
25615;SDS011;13482;48.234;13.006;2023-11-19T09:01:14;1.98;;;1.40;;
25615;SDS011;13482;48.234;13.006;2023-11-19T09:03:42;2.00;;;1.58;;
25615;SDS011;13482;48.234;13.006;2023-11-19T09:06:10;2.38;;;1.80;;
25615;SDS011;13482;48.234;13.006;2023-11-19T09:08:37;2.80;;;2.13;;
25615;SDS011;13482;48.234;13.006;2023-11-19T09:11:06;3.33;;;2.63;;
25615;SDS011;13482;48.234;13.006;2023-11-19T09:13:35;3.80;;;2.83;;
25615;SDS011;13482;48.234;13.006;2023-11-19T09:16:03;3.92;;;3.08;;
25615;SDS011;13482;48.234;13.006;2023-11-19T09:18:31;4.82;;;3.90;;
25615;SDS011;13482;48.234;13.006;2023-11-19T09:21:00;4.80;;;3.72;;
25615;SDS011;13482;48.234;13.006;2023-11-19T09:23:28;3.40;;;2.90;;
25615;SDS011;13482;48.234;13.006;2023-11-19T09:25:59;2.85;;;2.13;;
25615;SDS011;13482;48.234;13.006;2023-11-19T09:28:27;2.20;;;1.67;;
25615;SDS011;13482;48.234;13.006;2023-11-19T09:30:54;2.45;;;1.55;;
25615;SDS011;13482;48.234;13.006;2023-11-19T09:33:21;2.00;;;1.42;;
25615;SDS011;13482;48.234;13.006;2023-11-19T09:35:49;1.60;;;1.20;;
25615;SDS011;13482;48.234;13.006;2023-11-19T09:38:17;1.30;;;1.10;;
25615;SDS011;13482;48.234;13.006;2023-11-19T09:40:45;1.60;;;1.00;;
25615;SDS011;13482;48.234;13.006;2023-11-19T09:43:13;1.10;;;0.90;;
25615;SDS011;13482;48.234;13.006;2023-11-19T09:45:51;1.38;;;0.98;;
25615;SDS011;13482;48.234;13.006;2023-11-19T09:48:20;1.20;;;0.82;;
25615;SDS011;13482;48.234;13.006;2023-11-19T09:50:51;1.85;;;1.30;;
25615;SDS011;13482;48.234;13.006;2023-11-19T09:53:19;2.78;;;1.80;;
25615;SDS011;13482;48.234;13.006;2023-11-19T09:55:47;2.20;;;1.40;;
25615;SDS011;13482;48.234;13.006;2023-11-19T09:58:15;2.10;;;1.27;;
25615;SDS011;13482;48.234;13.006;2023-11-19T10:00:43;1.63;;;1.13;;
25615;SDS011;13482;48.234;13.006;2023-11-19T10:03:21;1.33;;;1.00;;
25615;SDS011;13482;48.234;13.006;2023-11-19T10:05:50;1.48;;;0.98;;
25615;SDS011;13482;48.234;13.006;2023-11-19T10:08:17;2.50;;;1.48;;
25615;SDS011;13482;48.234;13.006;2023-11-19T10:10:45;4.47;;;3.03;;
25615;SDS011;13482;48.234;13.006;2023-11-19T10:13:14;3.03;;;2.20;;
25615;SDS011;13482;48.234;13.006;2023-11-19T10:15:42;2.28;;;1.50;;
25615;SDS011;13482;48.234;13.006;2023-11-19T10:18:11;2.55;;;1.95;;
25615;SDS011;13482;48.234;13.006;2023-11-19T10:20:41;3.67;;;2.95;;
25615;SDS011;13482;48.234;13.006;2023-11-19T10:23:10;3.60;;;2.92;;
25615;SDS011;13482;48.234;13.006;2023-11-19T10:25:38;2.50;;;1.92;;
25615;SDS011;13482;48.234;13.006;2023-11-19T10:28:06;3.17;;;1.90;;
25615;SDS011;13482;48.234;13.006;2023-11-19T10:30:34;2.55;;;2.00;;
25615;SDS011;13482;48.234;13.006;2023-11-19T10:33:08;3.00;;;1.67;;
25615;SDS011;13482;48.234;13.006;2023-11-19T10:35:51;2.05;;;1.35;;
25615;SDS011;13482;48.234;13.006;2023-11-19T10:38:24;1.38;;;1.02;;
25615;SDS011;13482;48.234;13.006;2023-11-19T10:40:53;1.77;;;1.20;;
25615;SDS011;13482;48.234;13.006;2023-11-19T10:43:21;2.08;;;1.25;;
25615;SDS011;13482;48.234;13.006;2023-11-19T10:45:50;9.98;;;8.98;;
25615;SDS011;13482;48.234;13.006;2023-11-19T10:48:18;6.13;;;5.47;;
25615;SDS011;13482;48.234;13.006;2023-11-19T10:50:49;17.60;;;13.60;;
25615;SDS011;13482;48.234;13.006;2023-11-19T10:53:22;8.98;;;7.28;;
25615;SDS011;13482;48.234;13.006;2023-11-19T10:55:53;6.30;;;5.40;;
25615;SDS011;13482;48.234;13.006;2023-11-19T10:58:25;4.82;;;3.92;;
25615;SDS011;13482;48.234;13.006;2023-11-19T11:00:57;3.08;;;2.72;;
25615;SDS011;13482;48.234;13.006;2023-11-19T11:03:31;7.72;;;7.03;;
25615;SDS011;13482;48.234;13.006;2023-11-19T11:06:06;4.93;;;4.50;;
25615;SDS011;13482;48.234;13.006;2023-11-19T11:08:37;3.38;;;3.08;;
25615;SDS011;13482;48.234;13.006;2023-11-19T11:11:07;2.47;;;1.90;;
25615;SDS011;13482;48.234;13.006;2023-11-19T11:13:36;1.60;;;1.40;;
25615;SDS011;13482;48.234;13.006;2023-11-19T11:16:09;1.50;;;1.20;;
25615;SDS011;13482;48.234;13.006;2023-11-19T11:18:38;1.83;;;1.30;;
25615;SDS011;13482;48.234;13.006;2023-11-19T11:21:09;2.05;;;1.42;;
25615;SDS011;13482;48.234;13.006;2023-11-19T11:26:33;1.52;;;0.90;;
25615;SDS011;13482;48.234;13.006;2023-11-19T11:29:24;0.90;;;0.50;;
25615;SDS011;13482;48.234;13.006;2023-11-19T11:35:19;0.50;;;0.40;;
25615;SDS011;13482;48.234;13.006;2023-11-19T11:38:23;0.40;;;0.17;;
25615;SDS011;13482;48.234;13.006;2023-11-19T11:43:54;3.72;;;2.20;;
25615;SDS011;13482;48.234;13.006;2023-11-19T11:49:05;2.60;;;1.70;;
25615;SDS011;13482;48.234;13.006;2023-11-19T11:57:06;4.60;;;3.50;;
25615;SDS011;13482;48.234;13.006;2023-11-19T12:02:12;2.13;;;1.40;;
25615;SDS011;13482;48.234;13.006;2023-11-19T12:04:49;1.05;;;0.77;;
25615;SDS011;13482;48.234;13.006;2023-11-19T12:07:20;1.33;;;0.70;;
25615;SDS011;13482;48.234;13.006;2023-11-19T12:09:51;0.70;;;0.57;;
25615;SDS011;13482;48.234;13.006;2023-11-19T12:12:34;0.55;;;0.40;;
25615;SDS011;13482;48.234;13.006;2023-11-19T12:15:06;0.63;;;0.30;;
25615;SDS011;13482;48.234;13.006;2023-11-19T12:17:37;0.40;;;0.25;;
25615;SDS011;13482;48.234;13.006;2023-11-19T12:20:19;0.85;;;0.40;;
25615;SDS011;13482;48.234;13.006;2023-11-19T12:23:06;0.57;;;0.40;;
25615;SDS011;13482;48.234;13.006;2023-11-19T12:25:37;1.25;;;0.40;;
25615;SDS011;13482;48.234;13.006;2023-11-19T12:28:05;0.52;;;0.30;;
25615;SDS011;13482;48.234;13.006;2023-11-19T12:30:32;0.40;;;0.40;;
25615;SDS011;13482;48.234;13.006;2023-11-19T12:33:00;0.68;;;0.47;;
25615;SDS011;13482;48.234;13.006;2023-11-19T12:35:39;0.93;;;0.32;;
25615;SDS011;13482;48.234;13.006;2023-11-19T12:43:40;0.40;;;0.28;;
25615;SDS011;13482;48.234;13.006;2023-11-19T12:46:20;0.63;;;0.32;;
25615;SDS011;13482;48.234;13.006;2023-11-19T12:48:50;0.43;;;0.22;;
25615;SDS011;13482;48.234;13.006;2023-11-19T12:51:20;0.55;;;0.38;;
25615;SDS011;13482;48.234;13.006;2023-11-19T12:53:48;1.35;;;0.60;;
25615;SDS011;13482;48.234;13.006;2023-11-19T12:56:21;0.50;;;0.40;;
25615;SDS011;13482;48.234;13.006;2023-11-19T12:58:49;1.02;;;0.50;;
25615;SDS011;13482;48.234;13.006;2023-11-19T13:01:17;0.30;;;0.20;;
25615;SDS011;13482;48.234;13.006;2023-11-19T13:03:47;0.65;;;0.32;;
25615;SDS011;13482;48.234;13.006;2023-11-19T13:06:17;0.47;;;0.20;;
25615;SDS011;13482;48.234;13.006;2023-11-19T13:08:48;0.35;;;0.20;;
25615;SDS011;13482;48.234;13.006;2023-11-19T13:11:32;0.10;;;0.10;;
25615;SDS011;13482;48.234;13.006;2023-11-19T13:14:03;0.32;;;0.13;;
25615;SDS011;13482;48.234;13.006;2023-11-19T13:16:38;0.43;;;0.20;;
25615;SDS011;13482;48.234;13.006;2023-11-19T13:19:06;0.22;;;0.10;;
25615;SDS011;13482;48.234;13.006;2023-11-19T13:21:35;0.45;;;0.20;;
25615;SDS011;13482;48.234;13.006;2023-11-19T13:24:04;0.25;;;0.13;;
25615;SDS011;13482;48.234;13.006;2023-11-19T13:26:34;0.30;;;0.10;;
25615;SDS011;13482;48.234;13.006;2023-11-19T13:29:01;1.10;;;0.20;;
25615;SDS011;13482;48.234;13.006;2023-11-19T13:31:29;0.40;;;0.20;;
25615;SDS011;13482;48.234;13.006;2023-11-19T13:33:57;0.65;;;0.10;;
25615;SDS011;13482;48.234;13.006;2023-11-19T13:36:25;0.10;;;0.10;;
25615;SDS011;13482;48.234;13.006;2023-11-19T13:38:53;0.30;;;0.10;;
25615;SDS011;13482;48.234;13.006;2023-11-19T13:41:26;0.13;;;0.10;;
25615;SDS011;13482;48.234;13.006;2023-11-19T13:43:54;0.90;;;0.10;;
25615;SDS011;13482;48.234;13.006;2023-11-19T13:46:21;0.25;;;0.10;;
25615;SDS011;13482;48.234;13.006;2023-11-19T13:48:50;0.52;;;0.20;;
25615;SDS011;13482;48.234;13.006;2023-11-19T13:51:17;0.80;;;0.80;;
25615;SDS011;13482;48.234;13.006;2023-11-19T13:53:45;0.40;;;0.30;;
25615;SDS011;13482;48.234;13.006;2023-11-19T13:56:16;0.00;;;0.00;;
25615;SDS011;13482;48.234;13.006;2023-11-19T13:58:44;1.48;;;0.20;;
25615;SDS011;13482;48.234;13.006;2023-11-19T14:01:12;0.25;;;0.10;;
25615;SDS011;13482;48.234;13.006;2023-11-19T14:03:41;0.20;;;0.10;;
25615;SDS011;13482;48.234;13.006;2023-11-19T14:06:09;0.70;;;0.47;;
25615;SDS011;13482;48.234;13.006;2023-11-19T14:08:37;1.15;;;0.68;;
25615;SDS011;13482;48.234;13.006;2023-11-19T14:11:06;1.65;;;1.00;;
25615;SDS011;13482;48.234;13.006;2023-11-19T14:13:34;0.65;;;0.50;;
25615;SDS011;13482;48.234;13.006;2023-11-19T14:16:02;1.02;;;0.60;;
25615;SDS011;13482;48.234;13.006;2023-11-19T14:18:33;0.50;;;0.40;;
25615;SDS011;13482;48.234;13.006;2023-11-19T14:21:01;0.95;;;0.60;;
25615;SDS011;13482;48.234;13.006;2023-11-19T14:23:30;1.15;;;0.70;;
25615;SDS011;13482;48.234;13.006;2023-11-19T14:25:57;0.80;;;0.40;;
25615;SDS011;13482;48.234;13.006;2023-11-19T14:28:25;0.32;;;0.30;;
25615;SDS011;13482;48.234;13.006;2023-11-19T14:30:53;0.28;;;0.20;;
25615;SDS011;13482;48.234;13.006;2023-11-19T14:33:24;1.58;;;0.90;;
25615;SDS011;13482;48.234;13.006;2023-11-19T14:35:51;1.65;;;0.60;;
25615;SDS011;13482;48.234;13.006;2023-11-19T14:38:19;1.60;;;1.00;;
25615;SDS011;13482;48.234;13.006;2023-11-19T14:40:46;2.28;;;1.50;;
25615;SDS011;13482;48.234;13.006;2023-11-19T14:43:14;1.23;;;1.00;;
25615;SDS011;13482;48.234;13.006;2023-11-19T14:45:42;1.52;;;1.20;;
25615;SDS011;13482;48.234;13.006;2023-11-19T14:48:16;1.88;;;0.70;;
25615;SDS011;13482;48.234;13.006;2023-11-19T14:50:44;0.63;;;0.50;;
25615;SDS011;13482;48.234;13.006;2023-11-19T14:53:12;1.02;;;0.70;;
25615;SDS011;13482;48.234;13.006;2023-11-19T14:55:40;0.98;;;0.70;;
25615;SDS011;13482;48.234;13.006;2023-11-19T14:58:07;0.38;;;0.20;;
25615;SDS011;13482;48.234;13.006;2023-11-19T15:00:39;0.60;;;0.20;;
25615;SDS011;13482;48.234;13.006;2023-11-19T15:03:07;0.95;;;0.35;;
25615;SDS011;13482;48.234;13.006;2023-11-19T15:05:36;0.28;;;0.20;;
25615;SDS011;13482;48.234;13.006;2023-11-19T15:08:03;0.13;;;0.13;;
25615;SDS011;13482;48.234;13.006;2023-11-19T15:10:33;0.40;;;0.30;;
25615;SDS011;13482;48.234;13.006;2023-11-19T15:13:03;0.95;;;0.60;;
25615;SDS011;13482;48.234;13.006;2023-11-19T15:15:32;0.88;;;0.43;;
25615;SDS011;13482;48.234;13.006;2023-11-19T15:18:02;0.75;;;0.32;;
25615;SDS011;13482;48.234;13.006;2023-11-19T15:20:31;0.50;;;0.28;;
25615;SDS011;13482;48.234;13.006;2023-11-19T15:22:59;0.60;;;0.30;;